Time;durP1;ratioP1;P1;durP2;ratioP2;P2;SDS_P1;SDS_P2;PMS_P1;PMS_P2;Temp;Humidity;BMP_temperature;BMP_pressure;BME280_temperature;BME280_humidity;BME280_pressure;Samples;Min_cycle;Max_cycle;Signal;HPM_P1;HPM_P2
2021/04/28 06:42:30;;;;;;;21.40;10.78;;;;;;;5.41;55.94;98137.59;1847752;76;22372;-61
2021/04/28 06:45:00;;;;;;;16.93;10.55;;;;;;;5.51;54.85;98133.67;1818037;78;21010;-62
2021/04/28 06:47:47;;;;;;;16.62;9.25;;;;;;;5.69;55.01;98134.34;1816814;79;21182;-62
2021/04/28 06:50:16;;;;;;;12.58;9.20;;;;;;;5.87;53.41;98136.61;1817962;78;20986;-62
2021/04/28 06:52:44;;;;;;;14.60;9.23;;;;;;;5.99;52.75;98141.20;1818237;79;20967;-66
2021/04/28 06:55:14;;;;;;;11.65;7.80;;;;;;;6.12;52.20;98134.12;1817976;78;21010;-60
2021/04/28 06:57:51;;;;;;;10.30;7.72;;;;;;;6.26;50.49;98136.59;1816833;79;21521;-61
2021/04/28 07:00:19;;;;;;;7.90;6.37;;;;;;;6.40;49.54;98132.39;1817430;79;21441;-63
2021/04/28 07:02:50;;;;;;;10.58;6.10;;;;;;;6.53;48.18;98133.23;1819052;79;20938;-61
2021/04/28 07:05:20;;;;;;;10.95;6.22;;;;;;;6.66;46.93;98127.97;1818184;78;20986;-64
2021/04/28 07:07:52;;;;;;;14.20;6.65;;;;;;;6.79;46.02;98125.60;1817243;79;21180;-62
2021/04/28 07:10:21;;;;;;;10.68;6.15;;;;;;;6.90;45.23;98137.88;1818042;79;21089;-63
2021/04/28 07:12:51;;;;;;;9.58;6.20;;;;;;;7.01;44.86;98128.58;1818012;78;21146;-62
2021/04/28 07:15:20;;;;;;;12.75;6.25;;;;;;;7.12;44.85;98134.19;1818033;79;20943;-63
2021/04/28 07:17:48;;;;;;;13.88;5.80;;;;;;;7.22;44.21;98136.87;1818447;78;20923;-63
2021/04/28 07:20:17;;;;;;;8.80;5.75;;;;;;;7.35;43.16;98135.00;1817974;79;21479;-64
2021/04/28 07:22:46;;;;;;;10.88;5.90;;;;;;;7.48;43.02;98135.83;1818056;79;20963;-63
2021/04/28 07:25:15;;;;;;;12.90;6.10;;;;;;;7.60;43.58;98129.70;1818168;79;21520;-62
2021/04/28 07:27:44;;;;;;;12.25;6.03;;;;;;;7.73;42.63;98134.47;1818321;79;21505;-61
2021/04/28 07:30:15;;;;;;;12.47;5.45;;;;;;;7.78;42.17;98131.81;1817379;78;21026;-63
2021/04/28 07:32:43;;;;;;;7.80;4.83;;;;;;;7.82;41.43;98134.75;1818076;79;21033;-60
2021/04/28 07:35:14;;;;;;;5.97;4.10;;;;;;;7.83;41.35;98133.14;1818060;79;20971;-61
2021/04/28 07:37:43;;;;;;;9.70;5.20;;;;;;;7.94;40.56;98136.58;1817989;78;21548;-62
2021/04/28 07:40:13;;;;;;;11.35;3.85;;;;;;;8.07;40.93;98130.70;1817867;79;20927;-59
2021/04/28 07:42:41;;;;;;;7.83;3.22;;;;;;;8.15;39.15;98134.94;1821827;78;20875;-62
2021/04/28 07:45:12;;;;;;;7.70;3.40;;;;;;;8.22;36.89;98135.98;1822058;78;20902;-64
2021/04/28 07:47:40;;;;;;;10.00;3.80;;;;;;;8.27;36.49;98130.66;1822111;78;21081;-61
2021/04/28 07:50:12;;;;;;;11.45;4.05;;;;;;;8.32;36.99;98133.84;1820987;78;22611;-60
2021/04/28 07:52:40;;;;;;;13.83;3.83;;;;;;;8.39;36.93;98133.02;1820531;78;21184;-61
2021/04/28 07:55:11;;;;;;;5.20;3.60;;;;;;;8.44;37.23;98128.47;1820110;78;21180;-63
2021/04/28 07:57:39;;;;;;;8.38;3.85;;;;;;;8.50;37.02;98110.58;1820239;78;21165;-62
2021/04/28 08:00:09;;;;;;;8.65;4.45;;;;;;;8.56;37.21;98120.95;1820189;78;21184;-63
2021/04/28 08:02:42;;;;;;;5.95;3.52;;;;;;;8.62;36.60;98125.19;1820280;78;21358;-65
2021/04/28 08:05:11;;;;;;;16.70;3.60;;;;;;;8.67;36.38;98124.36;1812979;78;20919;-62
2021/04/28 08:07:40;;;;;;;12.90;3.80;;;;;;;8.73;36.17;98118.75;1819629;78;20939;-60
2021/04/28 08:10:10;;;;;;;11.60;3.27;;;;;;;8.82;35.50;98121.62;1821421;78;21449;-60
2021/04/28 08:12:38;;;;;;;7.92;3.52;;;;;;;8.89;35.34;98119.45;1818780;78;20987;-62
2021/04/28 08:15:09;;;;;;;7.25;3.33;;;;;;;8.96;36.22;98113.27;1811982;78;21180;-63
2021/04/28 08:17:41;;;;;;;8.88;3.70;;;;;;;9.04;35.61;98101.20;1821669;78;20896;-61
2021/04/28 08:20:19;;;;;;;5.12;3.60;;;;;;;9.11;35.68;98113.19;1793313;78;21072;-63
2021/04/28 08:22:47;;;;;;;9.68;3.70;;;;;;;9.18;35.70;98107.52;1822066;78;20927;-61
2021/04/28 08:25:17;;;;;;;7.20;3.37;;;;;;;9.21;35.29;98105.64;1813011;78;21063;-61
2021/04/28 08:27:48;;;;;;;9.85;3.60;;;;;;;9.25;35.45;98100.80;1769819;80;21209;-62
2021/04/28 08:30:19;;;;;;;13.28;4.05;;;;;;;9.34;35.58;98100.45;1749526;81;20955;-62
2021/04/28 08:32:50;;;;;;;4.42;2.77;;;;;;;9.45;34.78;98101.16;1748480;82;21501;-62
2021/04/28 08:35:19;;;;;;;9.18;3.35;;;;;;;9.50;34.08;98105.93;1789389;80;21104;-64
2021/04/28 08:37:49;;;;;;;3.77;2.87;;;;;;;9.55;34.35;98107.77;1724296;82;21497;-61
2021/04/28 08:40:18;;;;;;;14.60;3.62;;;;;;;9.61;32.80;98097.27;1789134;80;21955;-64
2021/04/28 08:42:47;;;;;;;11.75;3.50;;;;;;;9.62;33.76;98094.33;1775856;79;20943;-66
2021/04/28 08:45:17;;;;;;;12.73;4.00;;;;;;;9.68;33.13;98102.31;1774394;80;20999;-63
2021/04/28 08:47:45;;;;;;;5.42;3.40;;;;;;;9.72;33.80;98096.66;1774741;80;20936;-61
2021/04/28 08:50:15;;;;;;;10.70;3.47;;;;;;;9.71;33.54;98095.05;1774468;80;20975;-63
2021/04/28 08:52:43;;;;;;;6.20;4.10;;;;;;;9.73;34.38;98086.22;1774381;80;21564;-65
2021/04/28 08:55:13;;;;;;;6.17;4.10;;;;;;;9.80;35.11;98096.83;1774299;80;21549;-61
2021/04/28 08:57:42;;;;;;;4.10;3.70;;;;;;;9.92;34.21;98100.45;1774336;80;21080;-64
2021/04/28 09:00:12;;;;;;;6.28;3.45;;;;;;;9.96;34.57;98100.17;1774345;80;20923;-62
2021/04/28 09:03:19;;;;;;;4.45;3.27;;;;;;;10.06;34.03;98096.03;1774351;80;21105;-62
2021/04/28 09:05:48;;;;;;;7.33;3.50;;;;;;;10.16;34.25;98088.73;1682092;85;21373;-63
2021/04/28 09:08:18;;;;;;;11.88;3.52;;;;;;;10.27;34.02;98077.34;1682181;85;21028;-61
2021/04/28 09:10:46;;;;;;;15.00;3.30;;;;;;;10.31;34.03;98077.05;1682175;85;20969;-61
2021/04/28 09:13:18;;;;;;;6.80;2.67;;;;;;;10.36;32.59;98074.32;1682133;84;20956;-62
2021/04/28 09:15:48;;;;;;;8.33;2.95;;;;;;;10.38;32.04;98074.83;1682207;84;21056;-61
2021/04/28 09:18:19;;;;;;;4.47;2.60;;;;;;;10.37;31.49;98078.58;1682154;85;21370;-62
2021/04/28 09:21:05;;;;;;;7.40;2.75;;;;;;;10.35;32.02;98075.39;1614296;88;20995;-60
2021/04/28 09:23:52;;;;;;;24.85;3.52;;;;;;;10.38;32.23;98066.80;1616283;87;20975;-60
2021/04/28 09:26:39;;;;;;;21.02;3.37;;;;;;;10.48;31.71;98066.64;1662592;86;20992;-60
2021/04/28 09:29:10;;;;;;;5.90;3.12;;;;;;;10.58;31.42;98071.08;1662731;86;21001;-60
2021/04/28 09:31:39;;;;;;;6.97;3.80;;;;;;;10.62;30.88;98072.12;1645595;86;21465;-62
2021/04/28 09:34:07;;;;;;;5.45;3.67;;;;;;;10.67;31.45;98058.66;1661938;84;21249;-61
2021/04/28 09:36:40;;;;;;;11.03;5.17;;;;;;;10.73;31.21;98054.81;1661831;86;21156;-60
2021/04/28 09:39:11;;;;;;;15.48;5.08;;;;;;;10.76;32.33;98059.03;1661618;86;21178;-59
2021/04/28 09:41:48;;;;;;;36.30;5.35;;;;;;;10.86;32.43;98054.88;1661802;86;21214;-62
2021/04/28 09:44:32;;;;;;;17.67;5.87;;;;;;;10.94;31.32;98052.90;1662777;86;21634;-61
2021/04/28 09:47:09;;;;;;;9.65;3.62;;;;;;;10.96;31.41;98044.55;1663285;86;21120;-60
2021/04/28 09:50:00;;;;;;;4.78;3.60;;;;;;;11.03;31.61;98046.86;1662751;86;21017;-62
2021/04/28 09:52:41;;;;;;;4.95;3.40;;;;;;;11.06;31.80;98042.27;1662546;86;21159;-62
2021/04/28 09:55:15;;;;;;;7.67;3.70;;;;;;;11.12;32.76;98033.05;1662742;85;21595;-61
2021/04/28 09:57:47;;;;;;;12.60;5.25;;;;;;;11.23;31.79;98031.81;1662621;86;21380;-61
2021/04/28 10:00:22;;;;;;;11.18;5.87;;;;;;;11.35;32.51;98020.86;1662221;86;21222;-60
2021/04/28 10:02:59;;;;;;;9.80;5.37;;;;;;;11.49;31.74;98024.94;1661419;86;21197;-63
2021/04/28 10:05:37;;;;;;;12.07;4.37;;;;;;;11.54;31.78;98026.20;1661175;86;21021;-64
2021/04/28 10:11:00;;;;;;;7.60;3.55;;;;;;;11.65;31.24;98026.27;1876970;76;22704;-64
2021/04/28 10:13:28;;;;;;;9.73;3.60;;;;;;;11.56;31.57;98026.13;1851386;77;21156;-61
2021/04/28 10:15:58;;;;;;;6.75;3.52;;;;;;;11.51;32.60;98016.05;1847265;77;21223;-63
2021/04/28 10:18:28;;;;;;;8.28;3.47;;;;;;;11.58;32.55;98018.61;1852542;77;20915;-62
2021/04/28 10:20:56;;;;;;;7.58;3.05;;;;;;;11.64;31.62;98014.73;1852713;77;20915;-62
2021/04/28 10:23:26;;;;;;;5.17;3.30;;;;;;;11.66;32.59;98006.37;1817996;77;20911;-64
2021/04/28 10:25:56;;;;;;;48.15;4.78;;;;;;;11.77;32.25;98001.11;1852754;77;21121;-63
2021/04/28 10:28:25;;;;;;;9.45;3.62;;;;;;;11.89;31.75;98001.42;1852571;77;21179;-63
2021/04/28 10:30:54;;;;;;;17.42;3.80;;;;;;;11.93;31.23;98001.06;1852762;77;20935;-60
2021/04/28 10:33:25;;;;;;;13.53;4.10;;;;;;;11.91;31.84;97991.18;1817966;77;20973;-62
2021/04/28 10:35:54;;;;;;;8.03;3.80;;;;;;;11.94;31.43;97995.16;1852502;77;20899;-60
2021/04/28 10:38:26;;;;;;;6.58;3.40;;;;;;;11.97;31.80;97991.86;1852599;77;21457;-64
2021/04/28 10:40:55;;;;;;;21.25;3.62;;;;;;;12.01;31.52;97994.98;1818105;77;21181;-63
2021/04/28 10:43:37;;;;;;;5.40;3.27;;;;;;;12.03;31.91;97984.77;1851334;77;21009;-60
2021/04/28 10:46:21;;;;;;;4.47;2.90;;;;;;;12.11;31.87;97979.22;1851550;77;21018;-63
2021/04/28 10:48:53;;;;;;;5.15;3.50;;;;;;;12.18;31.41;97988.47;1847808;77;20970;-62
2021/04/28 10:51:37;;;;;;;5.47;3.60;;;;;;;12.22;30.65;97987.34;1818007;77;20966;-64
2021/04/28 10:54:27;;;;;;;6.20;3.30;;;;;;;12.15;31.62;97988.28;1851696;77;21341;-63
2021/04/28 10:57:05;;;;;;;8.28;3.75;;;;;;;12.17;32.28;97996.30;1852406;77;20915;-65
2021/04/28 10:59:41;;;;;;;7.35;3.47;;;;;;;12.27;32.05;97984.55;1851621;77;20994;-64
2021/04/28 11:02:12;;;;;;;8.70;3.15;;;;;;;12.29;30.84;97981.78;1851554;77;21144;-63
2021/04/28 11:04:47;;;;;;;8.08;4.90;;;;;;;12.26;31.40;97991.00;1816891;77;21187;-60
2021/04/28 11:07:43;;;;;;;4.97;3.22;;;;;;;12.23;31.19;97996.96;1851561;77;21343;-62
2021/04/28 11:10:33;;;;;;;8.45;3.02;;;;;;;12.22;31.44;97988.11;1803767;77;21161;-60
2021/04/28 11:13:17;;;;;;;4.35;3.10;;;;;;;12.26;31.59;97982.95;1852073;77;21104;-63
2021/04/28 11:15:57;;;;;;;10.98;3.33;;;;;;;12.40;31.70;97982.91;1852509;77;20899;-63
2021/04/28 11:18:36;;;;;;;10.40;2.87;;;;;;;12.53;31.32;97982.88;1852562;77;20883;-63
2021/04/28 11:21:23;;;;;;;8.43;3.80;;;;;;;12.63;31.18;97976.48;1852380;77;21445;-62
2021/04/28 11:24:15;;;;;;;6.37;4.50;;;;;;;12.69;31.55;97976.09;1851844;77;20963;-63
2021/04/28 11:26:51;;;;;;;7.20;4.17;;;;;;;12.83;32.22;97977.38;1851917;77;20910;-65
2021/04/28 11:29:21;;;;;;;8.13;4.08;;;;;;;12.98;31.34;97982.38;1850902;77;21006;-63
2021/04/28 11:31:54;;;;;;;7.67;5.33;;;;;;;13.09;31.32;97982.42;1842387;77;20952;-62
2021/04/28 11:34:34;;;;;;;7.28;4.35;;;;;;;13.21;30.25;97976.48;1842426;77;21149;-63
2021/04/28 11:37:09;;;;;;;16.57;4.87;;;;;;;13.23;31.01;97972.39;1773611;81;21031;-61
2021/04/28 11:39:44;;;;;;;7.65;3.83;;;;;;;13.39;30.36;97965.52;1773224;80;20979;-61
2021/04/28 11:42:18;;;;;;;5.72;3.47;;;;;;;13.47;30.58;97965.33;1773428;80;21134;-62
2021/04/28 11:44:52;;;;;;;6.03;4.37;;;;;;;13.55;30.66;97969.39;1773944;81;20951;-65
2021/04/28 11:47:26;;;;;;;9.35;5.15;;;;;;;13.66;31.26;97963.97;1773626;81;21385;-66
2021/04/28 11:49:56;;;;;;;5.67;4.03;;;;;;;13.88;31.10;97955.58;1773695;81;21094;-60
2021/04/28 11:52:25;;;;;;;13.20;4.78;;;;;;;14.11;30.41;97952.48;1774285;78;20924;-62
2021/04/28 11:54:57;;;;;;;6.33;4.87;;;;;;;14.24;31.15;97950.77;1751518;81;20931;-63
2021/04/28 11:57:32;;;;;;;5.20;4.55;;;;;;;14.36;31.02;97949.63;1782575;80;20925;-64
2021/04/28 12:00:08;;;;;;;8.13;5.97;;;;;;;14.46;30.50;97942.56;1782506;80;20988;-60
2021/04/28 12:02:37;;;;;;;9.15;5.75;;;;;;;14.56;30.77;97938.22;1782281;80;20946;-65
2021/04/28 12:05:07;;;;;;;9.70;4.25;;;;;;;14.72;31.47;97923.16;1782128;80;20928;-62
2021/04/28 12:07:36;;;;;;;6.85;3.72;;;;;;;14.92;30.46;97931.95;1782340;80;20894;-61
2021/04/28 12:10:11;;;;;;;7.30;3.95;;;;;;;15.05;29.05;97931.52;1778035;80;20938;-60
2021/04/28 12:12:39;;;;;;;7.97;4.17;;;;;;;15.01;29.04;97934.08;1771485;81;21388;-61
2021/04/28 12:15:13;;;;;;;5.87;4.40;;;;;;;15.05;29.69;97926.13;1771361;81;20980;-64
2021/04/28 12:17:47;;;;;;;7.30;3.52;;;;;;;15.18;29.55;97914.92;1740850;82;21018;-58
2021/04/28 12:20:21;;;;;;;4.50;3.87;;;;;;;15.25;28.72;97924.66;1771624;80;20909;-63
2021/04/28 12:22:49;;;;;;;8.98;5.70;;;;;;;15.22;29.11;97909.91;1771474;81;20950;-64
2021/04/28 12:25:19;;;;;;;9.38;4.65;;;;;;;15.24;29.08;97909.02;1771363;81;21364;-62
2021/04/28 12:27:50;;;;;;;4.30;3.05;;;;;;;15.25;29.28;97916.56;1771415;81;21643;-60
2021/04/28 12:30:23;;;;;;;11.08;3.52;;;;;;;15.30;29.14;97902.35;1771453;81;21193;-61
2021/04/28 12:32:54;;;;;;;8.55;3.05;;;;;;;15.42;28.80;97913.27;1772213;81;20943;-60
2021/04/28 12:35:33;;;;;;;6.67;4.35;;;;;;;15.37;28.18;97908.05;1772565;81;21020;-61
2021/04/28 12:38:16;;;;;;;12.18;5.20;;;;;;;15.32;28.07;97894.73;1772239;81;21544;-62
2021/04/28 12:40:55;;;;;;;10.32;4.90;;;;;;;15.32;28.77;97889.87;1771378;81;21004;-64
2021/04/28 12:43:26;;;;;;;6.08;4.35;;;;;;;15.52;28.86;97887.86;1771429;81;20990;-62
2021/04/28 12:46:13;;;;;;;10.85;3.90;;;;;;;15.81;28.43;97894.61;1771201;81;20968;-61
2021/04/28 12:49:01;;;;;;;8.78;3.52;;;;;;;16.02;27.99;97898.14;1771432;81;20946;-59
2021/04/28 12:51:31;;;;;;;8.68;2.77;;;;;;;16.02;27.81;97891.39;1771396;81;22033;-60
2021/04/28 12:53:59;;;;;;;5.97;3.62;;;;;;;16.16;27.61;97885.73;1771387;81;21052;-61
2021/04/28 12:56:41;;;;;;;5.80;3.37;;;;;;;16.24;27.62;97884.89;1771433;81;21383;-61
2021/04/28 12:59:22;;;;;;;5.83;4.28;;;;;;;16.22;27.08;97878.47;1771438;81;20918;-66
2021/04/28 13:02:01;;;;;;;13.88;6.87;;;;;;;16.14;27.18;97882.57;1772369;79;21008;-63
2021/04/28 13:04:31;;;;;;;10.65;5.62;;;;;;;16.09;26.82;97871.40;1777402;79;20991;-61
2021/04/28 13:07:17;;;;;;;6.60;3.85;;;;;;;16.09;27.63;97870.59;1800711;78;21048;-62
2021/04/28 13:09:46;;;;;;;7.75;4.35;;;;;;;16.19;27.85;97872.38;1781472;79;21091;-61
